Time;durP1;ratioP1;P1;durP2;ratioP2;P2;SDS_P1;SDS_P2;PMS_P1;PMS_P2;Temp;Humidity;BMP_temperature;BMP_pressure;BME280_temperature;BME280_humidity;BME280_pressure;Samples;Min_cycle;Max_cycle;Signal;HPM_P1;HPM_P2
2023/06/01 00:00:56;;;;;;;;;;;;;;;23.32;45.86;98055.41;5051055;28;19929;-73
2023/06/01 00:03:22;;;;;;;;;;;;;;;23.32;45.95;98055.41;5041016;28;19932;-73
2023/06/01 00:05:49;;;;;;;;;;;;;;;23.24;45.78;98044.66;5038795;28;19921;-73
2023/06/01 00:08:15;;;;;;;;;;;;;;;23.25;45.98;98059.84;5040619;28;19926;-73
2023/06/01 00:10:41;;;;;;;;;;;;;;;23.25;45.73;98055.19;5041497;28;19926;-73
2023/06/01 00:13:08;;;;;;;;;;;;;;;23.24;45.95;98056.31;5041726;28;19925;-73
2023/06/01 00:15:36;;;;;;;;;;;;;;;23.24;45.68;98045.41;5041703;28;19936;-73
2023/06/01 00:18:02;;;;;;;;;;;;;;;23.21;45.89;98046.09;5037807;28;19932;-73
2023/06/01 00:20:29;;;;;;;;;;;;;;;23.24;45.90;98050.88;5038334;28;19926;-73
2023/06/01 00:22:58;;;;;;;;;;;;;;;23.22;45.81;98050.41;5041246;28;19948;-73
2023/06/01 00:25:24;;;;;;;;;;;;;;;23.20;45.55;98047.25;5041911;28;19926;-73
2023/06/01 00:27:50;;;;;;;;;;;;;;;23.10;45.77;98051.22;5041503;28;19921;-73
2023/06/01 00:30:17;;;;;;;;;;;;;;;22.95;45.82;98045.66;5044773;28;19956;-73
2023/06/01 00:32:44;;;;;;;;;;;;;;;22.81;45.91;98056.09;5038367;28;19940;-73
2023/06/01 00:35:11;;;;;;;;;;;;;;;22.81;46.12;98056.88;5041237;28;19925;-73
2023/06/01 00:37:37;;;;;;;;;;;;;;;22.83;45.98;98053.81;5040871;28;20343;-73
2023/06/01 00:40:04;;;;;;;;;;;;;;;22.83;45.96;98048.38;5044918;28;19929;-73
2023/06/01 00:42:30;;;;;;;;;;;;;;;22.80;45.71;98043.63;5037764;28;19951;-73
2023/06/01 00:44:58;;;;;;;;;;;;;;;22.82;45.82;98046.78;5041520;28;19933;-73
2023/06/01 00:47:25;;;;;;;;;;;;;;;22.77;45.78;98033.41;5057218;28;19922;-73
2023/06/01 00:49:52;;;;;;;;;;;;;;;22.82;45.56;98041.34;5041333;28;19936;-73
2023/06/01 00:52:19;;;;;;;;;;;;;;;22.84;45.73;98045.31;5035124;28;19928;-73
2023/06/01 00:54:45;;;;;;;;;;;;;;;22.79;45.94;98040.09;5037630;28;19921;-73
2023/06/01 00:57:12;;;;;;;;;;;;;;;22.77;45.65;98042.38;5040597;28;19941;-73
2023/06/01 00:59:39;;;;;;;;;;;;;;;22.82;45.58;98042.13;5041664;28;20466;-73
2023/06/01 01:02:05;;;;;;;;;;;;;;;22.83;45.45;98037.50;5036156;28;19944;-73
2023/06/01 01:04:32;;;;;;;;;;;;;;;22.80;45.63;98035.44;5037447;28;19926;-73
2023/06/01 01:07:10;;;;;;;;;;;;;;;22.78;45.69;98030.31;5041319;28;19926;-73
2023/06/01 01:09:40;;;;;;;;;;;;;;;22.83;45.83;98029.31;5041131;28;19949;-74
2023/06/01 01:12:09;;;;;;;;;;;;;;;22.79;45.83;98031.13;5041109;28;19925;-73
2023/06/01 01:14:40;;;;;;;;;;;;;;;22.78;45.95;98029.53;5054617;28;19929;-73
2023/06/01 01:17:11;;;;;;;;;;;;;;;22.75;45.73;98035.66;5042166;28;19936;-73
2023/06/01 01:19:50;;;;;;;;;;;;;;;22.75;45.90;98024.75;5034328;28;19925;-73
2023/06/01 01:22:24;;;;;;;;;;;;;;;22.69;46.01;98037.00;5041577;28;20497;-73
2023/06/01 01:25:05;;;;;;;;;;;;;;;22.62;45.96;98037.56;5040815;28;19925;-73
2023/06/01 01:27:39;;;;;;;;;;;;;;;22.54;45.88;98036.50;5035264;28;19922;-73
2023/06/01 01:30:08;;;;;;;;;;;;;;;22.45;46.16;98033.09;5042831;28;19926;-73
2023/06/01 01:32:35;;;;;;;;;;;;;;;22.41;46.18;98029.44;5040698;28;19926;-73
2023/06/01 01:35:02;;;;;;;;;;;;;;;22.41;46.09;98029.44;5041994;28;20047;-73
2023/06/01 01:37:28;;;;;;;;;;;;;;;22.44;46.05;98026.06;5044612;28;19926;-73
2023/06/01 01:39:55;;;;;;;;;;;;;;;22.29;46.38;98028.63;5044619;28;19940;-73
2023/06/01 01:42:21;;;;;;;;;;;;;;;22.35;46.37;98033.53;5042920;28;19932;-73
2023/06/01 01:44:47;;;;;;;;;;;;;;;22.38;46.33;98030.13;5047136;28;19929;-73
2023/06/01 01:47:20;;;;;;;;;;;;;;;22.38;46.63;98027.41;5044721;28;20254;-73
2023/06/01 01:49:49;;;;;;;;;;;;;;;22.25;46.62;98020.34;5044568;28;19936;-73
2023/06/01 01:52:17;;;;;;;;;;;;;;;22.20;46.71;98017.84;5040973;28;19932;-73
2023/06/01 01:54:44;;;;;;;;;;;;;;;22.23;46.98;98014.44;5039911;28;20036;-72
2023/06/01 01:57:13;;;;;;;;;;;;;;;22.30;46.89;98009.25;5043939;28;19921;-72
2023/06/01 01:59:40;;;;;;;;;;;;;;;22.29;46.94;98009.56;5059926;28;19932;-72
2023/06/01 02:02:07;;;;;;;;;;;;;;;22.32;46.74;98012.44;5048529;28;19921;-72
2023/06/01 02:04:38;;;;;;;;;;;;;;;22.31;46.92;98010.81;5041897;28;19925;-72
2023/06/01 02:07:04;;;;;;;;;;;;;;;22.27;47.12;98015.38;5059806;28;19932;-72
2023/06/01 02:09:31;;;;;;;;;;;;;;;22.26;47.11;98010.25;5044349;28;20001;-73
2023/06/01 02:11:57;;;;;;;;;;;;;;;22.15;47.40;98001.75;5042158;28;19960;-73
2023/06/01 02:14:24;;;;;;;;;;;;;;;22.08;47.39;98006.91;5056451;28;19933;-73
2023/06/01 02:16:50;;;;;;;;;;;;;;;22.15;47.50;97999.00;5039432;28;20351;-73
2023/06/01 02:19:17;;;;;;;;;;;;;;;22.15;47.34;98001.75;5041393;28;19925;-73
2023/06/01 02:21:44;;;;;;;;;;;;;;;22.14;47.52;98000.13;5044257;28;19925;-73
2023/06/01 02:24:11;;;;;;;;;;;;;;;22.01;47.47;97995.78;5048370;28;20545;-73
2023/06/01 02:26:37;;;;;;;;;;;;;;;21.94;47.72;97995.56;5039446;28;19926;-73
2023/06/01 02:29:05;;;;;;;;;;;;;;;21.93;47.69;97989.31;5048242;28;19932;-73
2023/06/01 02:31:31;;;;;;;;;;;;;;;21.93;47.74;97993.94;5046055;28;19929;-73
2023/06/01 02:33:57;;;;;;;;;;;;;;;21.97;47.74;97989.44;5043683;28;19948;-73
2023/06/01 02:36:25;;;;;;;;;;;;;;;21.97;47.59;97992.16;5041306;28;19952;-73
2023/06/01 02:38:53;;;;;;;;;;;;;;;21.68;48.17;97993.03;5038245;28;19925;-73
2023/06/01 02:41:21;;;;;;;;;;;;;;;21.71;48.04;97995.09;5041130;28;19948;-73
2023/06/01 02:43:47;;;;;;;;;;;;;;;21.82;47.92;97995.44;5042982;28;19990;-73
2023/06/01 02:46:13;;;;;;;;;;;;;;;21.89;47.74;97993.03;5058443;28;19929;-73
2023/06/01 02:48:40;;;;;;;;;;;;;;;21.89;47.71;97985.66;5040994;28;19925;-73
2023/06/01 02:51:06;;;;;;;;;;;;;;;21.84;47.91;97985.84;5046256;28;19936;-73
2023/06/01 02:53:32;;;;;;;;;;;;;;;21.72;48.11;97988.53;5045721;28;19925;-73
2023/06/01 02:56:00;;;;;;;;;;;;;;;21.71;48.10;97984.22;5043990;28;19922;-73
2023/06/01 02:58:29;;;;;;;;;;;;;;;21.77;47.92;97992.94;5042501;28;19929;-73
2023/06/01 03:00:57;;;;;;;;;;;;;;;21.75;47.85;97987.84;5048134;28;19925;-73
2023/06/01 03:03:24;;;;;;;;;;;;;;;21.81;47.75;97988.44;5040497;28;19925;-73
2023/06/01 03:05:51;;;;;;;;;;;;;;;21.76;47.74;97986.72;5051838;28;19921;-73
2023/06/01 03:08:17;;;;;;;;;;;;;;;21.71;47.96;97989.66;5042613;28;20622;-73
2023/06/01 03:10:44;;;;;;;;;;;;;;;21.73;47.78;97987.38;5040706;28;19937;-73
2023/06/01 03:13:12;;;;;;;;;;;;;;;21.69;47.83;97981.03;5042484;28;19945;-73
2023/06/01 03:15:38;;;;;;;;;;;;;;;21.71;47.99;97986.13;5058679;28;19956;-73
2023/06/01 03:18:05;;;;;;;;;;;;;;;21.63;47.90;97987.81;5042750;28;19925;-72
2023/06/01 03:20:31;;;;;;;;;;;;;;;21.43;48.13;97980.44;5057150;28;19925;-72
2023/06/01 03:22:58;;;;;;;;;;;;;;;21.43;48.35;97986.69;5038555;28;19994;-73
2023/06/01 03:25:24;;;;;;;;;;;;;;;21.51;48.05;97985.81;5048066;28;19929;-73
2023/06/01 03:27:51;;;;;;;;;;;;;;;21.48;48.23;97982.94;5042375;28;19925;-73
2023/06/01 03:30:19;;;;;;;;;;;;;;;21.52;47.93;97994.75;5047250;28;19929;-73
2023/06/01 03:32:46;;;;;;;;;;;;;;;21.50;48.12;97992.38;5039064;28;19945;-73
2023/06/01 03:35:12;;;;;;;;;;;;;;;21.50;48.06;97997.81;5042150;28;19926;-73
2023/06/01 03:37:40;;;;;;;;;;;;;;;21.44;48.22;98001.06;5045885;28;19917;-73
2023/06/01 03:40:10;;;;;;;;;;;;;;;21.51;48.08;98004.03;5039593;28;19937;-73
2023/06/01 03:42:38;;;;;;;;;;;;;;;21.42;48.28;97998.66;5058041;28;21386;-72
2023/06/01 03:45:05;;;;;;;;;;;;;;;21.40;48.26;98003.63;5043737;28;19929;-72
2023/06/01 03:47:33;;;;;;;;;;;;;;;21.14;48.79;97999.50;5042212;28;19925;-72
2023/06/01 03:50:00;;;;;;;;;;;;;;;21.06;49.03;98000.31;5042191;28;19925;-72
2023/06/01 03:52:27;;;;;;;;;;;;;;;21.07;49.02;98007.34;5040468;28;19959;-72
2023/06/01 03:54:53;;;;;;;;;;;;;;;20.99;49.09;98009.78;5038333;28;19925;-72
2023/06/01 03:57:20;;;;;;;;;;;;;;;20.67;49.75;98005.00;5040128;28;19949;-73
2023/06/01 03:59:46;;;;;;;;;;;;;;;20.21;50.56;98011.16;5051951;28;19936;-73
2023/06/01 04:02:13;;;;;;;;;;;;;;;20.45;50.31;98011.47;5042109;28;19938;-73
2023/06/01 04:04:45;;;;;;;;;;;;;;;20.43;50.52;98010.19;5041931;28;19925;-73
2023/06/01 04:07:14;;;;;;;;;;;;;;;20.32;50.66;98007.03;5034552;28;19926;-73
2023/06/01 04:09:41;;;;;;;;;;;;;;;20.67;49.98;98009.63;5041645;28;19932;-73
2023/06/01 04:12:07;;;;;;;;;;;;;;;20.26;50.48;98008.34;5056783;28;19937;-73
2023/06/01 04:14:35;;;;;;;;;;;;;;;20.46;50.30;98007.63;5040770;28;19932;-73
2023/06/01 04:17:02;;;;;;;;;;;;;;;20.52;50.25;98005.53;5037746;28;19925;-72
2023/06/01 04:19:28;;;;;;;;;;;;;;;20.54;50.16;98003.28;5054330;28;19925;-72
2023/06/01 04:21:56;;;;;;;;;;;;;;;20.68;50.05;98005.78;5041480;28;19937;-72
2023/06/01 04:24:23;;;;;;;;;;;;;;;20.25;50.67;98006.69;5041578;28;19925;-72
2023/06/01 04:26:49;;;;;;;;;;;;;;;20.55;50.40;98004.09;5041494;28;19929;-72
2023/06/01 04:29:16;;;;;;;;;;;;;;;20.53;50.37;98007.13;5040404;28;19925;-72
2023/06/01 04:31:42;;;;;;;;;;;;;;;20.74;50.08;98004.47;5043526;28;19925;-73
2023/06/01 04:34:09;;;;;;;;;;;;;;;20.39;50.44;98006.53;5041384;28;19945;-72
2023/06/01 04:36:39;;;;;;;;;;;;;;;20.50;50.41;98012.41;5040776;28;19925;-72
2023/06/01 04:39:07;;;;;;;;;;;;;;;20.59;50.27;98015.88;5036764;28;19936;-72
2023/06/01 04:41:34;;;;;;;;;;;;;;;20.64;50.19;98015.72;5038475;28;19937;-73
2023/06/01 04:44:05;;;;;;;;;;;;;;;20.61;50.34;98017.13;5056586;28;19930;-73
2023/06/01 04:46:31;;;;;;;;;;;;;;;19.97;51.37;98016.31;5041008;28;19926;-73
2023/06/01 04:48:59;;;;;;;;;;;;;;;19.83;52.14;98015.72;5041346;28;19925;-73
2023/06/01 04:51:26;;;;;;;;;;;;;;;18.99;53.56;98018.78;5032984;28;19936;-73
2023/06/01 04:53:53;;;;;;;;;;;;;;;19.58;52.58;98014.59;5035883;28;20534;-73
2023/06/01 04:56:24;;;;;;;;;;;;;;;19.22;53.22;98025.66;5046201;28;19925;-72
2023/06/01 04:58:51;;;;;;;;;;;;;;;19.08;54.24;98019.59;5042547;28;19936;-72
2023/06/01 05:01:17;;;;;;;;;;;;;;;19.53;53.56;98008.56;5044710;28;19963;-72
2023/06/01 05:03:44;;;;;;;;;;;;;;;19.19;54.06;98020.09;5036590;28;19926;-72
2023/06/01 05:06:11;;;;;;;;;;;;;;;19.58;53.46;98013.81;5040563;28;19926;-72
2023/06/01 05:08:38;;;;;;;;;;;;;;;19.82;53.00;98014.91;5056600;28;19941;-72
2023/06/01 05:11:05;;;;;;;;;;;;;;;19.90;52.68;98011.38;5044040;28;19926;-72
2023/06/01 05:13:32;;;;;;;;;;;;;;;19.97;52.70;98010.91;5059645;28;19920;-72
2023/06/01 05:15:59;;;;;;;;;;;;;;;20.22;52.17;98007.34;5041180;28;19928;-72
2023/06/01 05:18:25;;;;;;;;;;;;;;;19.81;52.87;98009.78;5050486;28;19952;-72
2023/06/01 05:20:51;;;;;;;;;;;;;;;19.43;53.89;98022.41;5041738;28;19956;-72
2023/06/01 05:23:18;;;;;;;;;;;;;;;19.24;54.63;98019.94;5042089;28;19952;-72
2023/06/01 05:25:44;;;;;;;;;;;;;;;19.23;54.78;98013.72;5041125;28;19925;-72
2023/06/01 05:28:10;;;;;;;;;;;;;;;19.75;54.04;98003.75;5044563;28;19925;-73
2023/06/01 05:30:38;;;;;;;;;;;;;;;19.60;54.80;98012.34;5046675;28;19941;-72
2023/06/01 05:33:05;;;;;;;;;;;;;;;20.20;53.51;98004.16;5044806;28;19991;-72
2023/06/01 05:35:31;;;;;;;;;;;;;;;20.64;52.21;98013.00;5044698;28;19925;-72
2023/06/01 05:37:57;;;;;;;;;;;;;;;20.88;51.71;98008.56;5045593;28;19925;-73
2023/06/01 05:40:24;;;;;;;;;;;;;;;20.96;51.68;98005.00;5044661;28;19925;-73
2023/06/01 05:42:50;;;;;;;;;;;;;;;21.32;50.98;98012.63;5044495;28;20282;-72
2023/06/01 05:45:16;;;;;;;;;;;;;;;21.59;50.46;98007.81;5038281;28;19930;-72
2023/06/01 05:47:44;;;;;;;;;;;;;;;21.73;50.47;98002.88;5039596;28;19936;-73
2023/06/01 05:50:11;;;;;;;;;;;;;;;21.88;50.29;97996.88;5043682;28;19945;-73
2023/06/01 05:52:38;;;;;;;;;;;;;;;22.05;50.11;97997.50;5044333;28;19921;-73
2023/06/01 05:55:05;;;;;;;;;;;;;;;22.26;49.70;98002.09;5044275;28;19925;-73
2023/06/01 05:57:32;;;;;;;;;;;;;;;22.32;50.05;98006.19;5043771;28;19925;-73
2023/06/01 05:59:58;;;;;;;;;;;;;;;22.30;50.04;97995.66;5052099;28;20016;-72
2023/06/01 06:02:24;;;;;;;;;;;;;;;22.50;49.83;97993.97;5042917;28;19926;-72
2023/06/01 06:04:52;;;;;;;;;;;;;;;22.67;49.81;97993.00;5043957;28;19925;-72
2023/06/01 06:07:19;;;;;;;;;;;;;;;22.67;49.80;97993.81;5041357;28;19921;-73
2023/06/01 06:09:45;;;;;;;;;;;;;;;22.66;50.36;97994.13;5038712;28;19933;-73
2023/06/01 06:12:12;;;;;;;;;;;;;;;22.71;50.31;97993.91;5043015;28;19921;-73
2023/06/01 06:14:38;;;;;;;;;;;;;;;22.90;50.00;97996.88;5051682;28;19929;-73
2023/06/01 06:17:05;;;;;;;;;;;;;;;23.05;49.75;97994.25;5039074;28;19928;-73
2023/06/01 06:19:31;;;;;;;;;;;;;;;23.11;49.86;97989.38;5041306;28;19932;-73
2023/06/01 06:21:59;;;;;;;;;;;;;;;23.23;49.80;97992.06;5043354;28;20574;-73
2023/06/01 06:24:26;;;;;;;;;;;;;;;23.38;49.63;97990.56;5044065;28;19925;-73
2023/06/01 06:26:53;;;;;;;;;;;;;;;23.26;49.84;97996.84;5044010;28;19932;-73
2023/06/01 06:29:19;;;;;;;;;;;;;;;23.33;49.82;97994.34;5042908;28;19925;-73
2023/06/01 06:31:45;;;;;;;;;;;;;;;23.37;49.91;97992.50;5039169;28;19925;-73
2023/06/01 06:34:12;;;;;;;;;;;;;;;23.47;49.90;98002.16;5051271;28;19925;-72
2023/06/01 06:36:39;;;;;;;;;;;;;;;23.51;49.83;98003.06;5043567;28;19932;-72
2023/06/01 06:39:07;;;;;;;;;;;;;;;23.56;49.88;98000.88;5038799;28;19925;-72
2023/06/01 06:41:33;;;;;;;;;;;;;;;23.36;50.00;98007.28;5036309;28;19926;-72
2023/06/01 06:43:59;;;;;;;;;;;;;;;23.42;49.98;98000.47;5040066;28;19932;-72
2023/06/01 06:46:26;;;;;;;;;;;;;;;23.54;50.04;98014.06;5058757;28;20463;-72
2023/06/01 06:48:52;;;;;;;;;;;;;;;23.46;50.28;98003.28;5043273;28;19933;-72
2023/06/01 06:51:19;;;;;;;;;;;;;;;23.18;50.72;98002.41;5041839;28;19932;-73
2023/06/01 06:53:45;;;;;;;;;;;;;;;23.13;50.78;97998.78;5040344;28;19924;-72
2023/06/01 06:56:13;;;;;;;;;;;;;;;23.35;50.64;97994.78;5054822;28;19952;-72
2023/06/01 06:58:39;;;;;;;;;;;;;;;23.46;50.50;97995.91;5047919;28;19929;-72
2023/06/01 07:01:06;;;;;;;;;;;;;;;23.61;50.27;97989.72;5049286;28;19940;-72
2023/06/01 07:03:32;;;;;;;;;;;;;;;23.75;50.37;97986.63;5039699;28;19925;-72
2023/06/01 07:05:59;;;;;;;;;;;;;;;23.53;50.62;97995.31;5043183;28;19956;-72
2023/06/01 07:08:26;;;;;;;;;;;;;;;23.25;51.08;98000.69;5043075;28;19925;-72
2023/06/01 07:10:53;;;;;;;;;;;;;;;23.22;51.28;98000.56;5042909;28;19921;-72
2023/06/01 07:13:21;;;;;;;;;;;;;;;23.11;51.71;97998.34;5039845;28;19936;-72
2023/06/01 07:15:47;;;;;;;;;;;;;;;23.13;52.02;97995.25;5039265;28;19929;-72
2023/06/01 07:18:14;;;;;;;;;;;;;;;23.12;51.89;97997.19;5040800;28;19922;-72
2023/06/01 07:20:40;;;;;;;;;;;;;;;23.49;51.61;97988.97;5058220;28;19936;-72
2023/06/01 07:23:07;;;;;;;;;;;;;;;23.37;51.86;97986.25;5035694;28;19925;-72
2023/06/01 07:25:34;;;;;;;;;;;;;;;23.18;52.10;97988.78;5043532;28;19921;-72
2023/06/01 07:28:06;;;;;;;;;;;;;;;23.56;51.58;97979.06;5043717;28;19936;-72
2023/06/01 07:30:34;;;;;;;;;;;;;;;23.63;51.70;97978.47;5043608;28;19933;-72
2023/06/01 07:33:01;;;;;;;;;;;;;;;23.88;51.44;97979.19;5041549;28;19925;-72
2023/06/01 07:35:27;;;;;;;;;;;;;;;24.11;50.97;97985.69;5039333;28;19936;-72
2023/06/01 07:37:54;;;;;;;;;;;;;;;23.93;50.78;97976.19;5038558;28;19933;-72
2023/06/01 07:40:20;;;;;;;;;;;;;;;23.94;51.36;97975.84;5040314;28;19925;-72
2023/06/01 07:42:47;;;;;;;;;;;;;;;24.11;51.07;97978.28;5042389;28;19952;-72
2023/06/01 07:45:14;;;;;;;;;;;;;;;24.11;51.37;97972.03;5057922;28;19926;-72
2023/06/01 07:47:41;;;;;;;;;;;;;;;24.21;51.25;97979.72;5042422;28;19936;-72
2023/06/01 07:50:08;;;;;;;;;;;;;;;24.07;51.27;97971.13;5035125;28;19929;-72
2023/06/01 07:52:35;;;;;;;;;;;;;;;24.00;51.45;97981.84;5042809;28;19925;-72
2023/06/01 07:55:03;;;;;;;;;;;;;;;24.12;51.52;97979.09;5042321;28;19930;-72
2023/06/01 07:57:29;;;;;;;;;;;;;;;24.32;51.03;97966.34;5035799;28;19933;-72
2023/06/01 07:59:55;;;;;;;;;;;;;;;24.54;51.19;97971.97;5044860;28;19925;-72
2023/06/01 08:02:22;;;;;;;;;;;;;;;24.65;50.84;97973.06;5038530;28;19926;-72
2023/06/01 08:04:51;;;;;;;;;;;;;;;24.68;50.78;97964.16;5057566;28;19929;-73
2023/06/01 08:07:18;;;;;;;;;;;;;;;24.68;50.35;97968.81;5041764;28;19936;-72
2023/06/01 08:09:46;;;;;;;;;;;;;;;24.61;50.99;97974.91;5041638;28;19929;-72
2023/06/01 08:12:13;;;;;;;;;;;;;;;24.60;51.25;97967.06;5038995;28;19931;-72
2023/06/01 08:14:40;;;;;;;;;;;;;;;24.47;51.03;97965.56;5037104;28;19926;-72
2023/06/01 08:17:08;;;;;;;;;;;;;;;24.12;51.67;97970.91;5041840;28;19933;-72
2023/06/01 08:19:35;;;;;;;;;;;;;;;24.46;51.65;97956.59;5056108;28;19925;-72
2023/06/01 08:22:04;;;;;;;;;;;;;;;24.64;51.52;97970.66;5037349;28;19995;-73
2023/06/01 08:24:32;;;;;;;;;;;;;;;24.81;51.02;97964.88;5039330;28;19930;-73
2023/06/01 08:26:58;;;;;;;;;;;;;;;24.74;50.60;97967.41;5042045;28;19929;-72
2023/06/01 08:29:25;;;;;;;;;;;;;;;24.54;50.92;97963.03;5048342;28;20036;-72
2023/06/01 08:31:51;;;;;;;;;;;;;;;24.50;51.21;97962.94;5043944;28;20645;-72
2023/06/01 08:34:18;;;;;;;;;;;;;;;24.51;50.59;97950.84;5039571;28;19940;-73
2023/06/01 08:36:44;;;;;;;;;;;;;;;24.42;50.70;97955.69;5045083;28;19925;-73
2023/06/01 08:39:22;;;;;;;;;;;;;;;24.65;51.46;97953.13;5043512;28;19921;-73
2023/06/01 08:41:55;;;;;;;;;;;;;;;25.28;50.30;97955.78;5041837;28;19929;-73
2023/06/01 08:44:23;;;;;;;;;;;;;;;24.96;50.39;97949.59;5041933;28;19933;-73
2023/06/01 08:46:50;;;;;;;;;;;;;;;25.40;49.91;97952.91;5044559;28;19952;-73
2023/06/01 08:49:17;;;;;;;;;;;;;;;24.86;49.73;97944.69;5045625;28;19948;-73
2023/06/01 08:51:44;;;;;;;;;;;;;;;25.10;50.20;97952.66;5048139;28;19956;-73
2023/06/01 08:54:11;;;;;;;;;;;;;;;25.31;49.55;97942.19;5067564;28;19925;-73
2023/06/01 08:56:42;;;;;;;;;;;;;;;25.38;49.51;97944.28;5043806;28;19947;-72
2023/06/01 08:59:08;;;;;;;;;;;;;;;25.62;49.49;97944.84;5051830;28;19929;-72
2023/06/01 09:01:35;;;;;;;;;;;;;;;25.42;49.35;97945.94;5051174;28;19933;-72
2023/06/01 09:04:01;;;;;;;;;;;;;;;25.11;49.28;97946.03;5048045;28;19952;-73
2023/06/01 09:06:29;;;;;;;;;;;;;;;24.97;49.15;97943.00;5046037;28;19933;-73
2023/06/01 09:08:55;;;;;;;;;;;;;;;25.57;49.34;97936.09;5044364;28;19926;-72
2023/06/01 09:11:21;;;;;;;;;;;;;;;25.61;48.31;97934.25;5044611;28;19933;-72
2023/06/01 09:13:49;;;;;;;;;;;;;;;25.79;49.09;97935.38;5047633;28;19929;-72
2023/06/01 09:16:15;;;;;;;;;;;;;;;26.15;48.13;97931.38;5047485;28;20016;-73
2023/06/01 09:18:51;;;;;;;;;;;;;;;26.06;48.17;97920.63;5048154;28;19936;-73
2023/06/01 09:21:18;;;;;;;;;;;;;;;26.23;47.79;97935.84;5060815;28;19929;-73
2023/06/01 09:23:44;;;;;;;;;;;;;;;26.26;47.14;97932.38;5047392;28;19993;-73
2023/06/01 09:26:11;;;;;;;;;;;;;;;26.14;43.24;97929.78;5047782;28;19925;-72
2023/06/01 09:28:55;;;;;;;;;;;;;;;26.24;43.18;97915.53;5047346;28;19933;-72
2023/06/01 09:31:39;;;;;;;;;;;;;;;26.15;44.99;97923.16;5048838;28;19926;-72
2023/06/01 09:34:06;;;;;;;;;;;;;;;26.54;44.09;97918.34;5051722;28;19920;-72
2023/06/01 09:36:33;;;;;;;;;;;;;;;26.36;43.13;97925.50;5051969;28;19925;-72
2023/06/01 09:39:03;;;;;;;;;;;;;;;26.34;44.14;97916.88;5047339;28;19932;-72
2023/06/01 09:41:44;;;;;;;;;;;;;;;26.48;44.05;97919.81;5045541;28;20464;-72
2023/06/01 09:44:12;;;;;;;;;;;;;;;26.69;43.89;97918.22;5040235;28;19936;-72
2023/06/01 09:46:46;;;;;;;;;;;;;;;26.86;42.41;97913.41;5043987;28;19925;-72
2023/06/01 09:49:18;;;;;;;;;;;;;;;26.73;43.17;97919.06;5042144;28;19926;-72
2023/06/01 09:51:45;;;;;;;;;;;;;;;26.93;42.52;97908.81;5062385;28;19925;-73
2023/06/01 09:54:21;;;;;;;;;;;;;;;26.59;42.83;97907.88;5047050;28;19925;-73
2023/06/01 09:56:48;;;;;;;;;;;;;;;26.83;42.36;97914.16;5046034;28;19987;-73
2023/06/01 09:59:15;;;;;;;;;;;;;;;26.83;41.63;97901.25;5051318;28;19928;-72
2023/06/01 10:01:42;;;;;;;;;;;;;;;26.90;42.34;97895.03;5046696;28;19952;-73
2023/06/01 10:04:10;;;;;;;;;;;;;;;27.10;41.57;97896.50;5059281;28;19925;-73
2023/06/01 10:06:39;;;;;;;;;;;;;;;26.99;41.45;97901.84;5038587;28;19925;-73
2023/06/01 10:09:08;;;;;;;;;;;;;;;26.76;41.34;97895.63;5039943;28;19925;-73
2023/06/01 10:11:35;;;;;;;;;;;;;;;27.19;41.37;97894.28;5040852;28;19932;-73
2023/06/01 10:14:02;;;;;;;;;;;;;;;27.25;41.26;97895.53;5043963;28;20048;-73
2023/06/01 10:16:30;;;;;;;;;;;;;;;27.00;37.85;97886.19;5043896;28;19933;-73
2023/06/01 10:18:57;;;;;;;;;;;;;;;26.83;41.19;97891.03;5043800;28;19929;-73
2023/06/01 10:21:24;;;;;;;;;;;;;;;27.17;40.70;97889.16;5042440;28;19925;-73
2023/06/01 10:23:50;;;;;;;;;;;;;;;26.77;40.04;97884.28;5045977;28;19926;-73
2023/06/01 10:26:19;;;;;;;;;;;;;;;26.49;37.85;97902.25;5043443;28;19942;-73
2023/06/01 10:28:45;;;;;;;;;;;;;;;26.85;40.74;97887.94;5044161;28;19932;-72
2023/06/01 10:31:31;;;;;;;;;;;;;;;26.64;37.09;97891.16;5047329;28;19924;-72
2023/06/01 10:33:58;;;;;;;;;;;;;;;26.31;37.12;97880.03;5055428;28;20524;-72
2023/06/01 10:36:26;;;;;;;;;;;;;;;26.59;38.87;97885.97;5039950;28;19926;-72
2023/06/01 10:39:21;;;;;;;;;;;;;;;26.54;38.25;97880.00;5043595;28;19925;-72
2023/06/01 10:41:48;;;;;;;;;;;;;;;27.12;39.18;97872.25;5043561;28;20017;-72
2023/06/01 10:44:36;;;;;;;;;;;;;;;26.75;36.90;97878.38;5063722;28;19925;-72
2023/06/01 10:47:02;;;;;;;;;;;;;;;26.93;38.01;97872.38;5038512;28;20662;-72
2023/06/01 10:49:43;;;;;;;;;;;;;;;26.79;36.20;97868.28;5041646;28;19972;-72
2023/06/01 10:52:27;;;;;;;;;;;;;;;26.69;34.93;97862.63;5042176;28;20001;-72
2023/06/01 10:54:54;;;;;;;;;;;;;;;26.79;37.16;97865.53;5043490;28;19937;-72
2023/06/01 10:57:21;;;;;;;;;;;;;;;26.86;37.16;97859.41;5058415;28;19925;-72
2023/06/01 11:00:11;;;;;;;;;;;;;;;26.86;37.09;97855.84;5044505;28;19929;-73
2023/06/01 11:02:43;;;;;;;;;;;;;;;26.89;37.41;97855.13;5042619;28;19925;-73
2023/06/01 11:05:28;;;;;;;;;;;;;;;27.03;37.53;97856.09;5035780;28;19926;-72
2023/06/01 11:07:55;;;;;;;;;;;;;;;27.00;36.25;97853.28;5042441;28;19925;-72
2023/06/01 11:10:37;;;;;;;;;;;;;;;26.96;37.13;97852.44;5043176;28;19925;-72
2023/06/01 11:13:17;;;;;;;;;;;;;;;26.86;37.77;97844.91;5043616;28;19925;-73
2023/06/01 11:16:10;;;;;;;;;;;;;;;26.93;37.93;97850.44;5044434;28;20417;-73
2023/06/01 11:18:46;;;;;;;;;;;;;;;26.99;36.64;97849.75;5043179;28;20142;-73
2023/06/01 11:21:16;;;;;;;;;;;;;;;26.76;36.99;97835.34;5044459;28;19948;-73
2023/06/01 11:23:43;;;;;;;;;;;;;;;26.74;36.34;97843.91;5054739;28;19925;-73
2023/06/01 11:26:09;;;;;;;;;;;;;;;26.71;38.41;97836.44;5044335;28;19929;-72
2023/06/01 11:28:36;;;;;;;;;;;;;;;27.03;37.99;97830.63;5043843;28;19949;-72
2023/06/01 11:31:03;;;;;;;;;;;;;;;27.22;37.84;97830.47;5046140;28;19929;-72
2023/06/01 11:33:31;;;;;;;;;;;;;;;27.27;37.82;97821.91;5040734;28;19940;-72
2023/06/01 11:36:04;;;;;;;;;;;;;;;27.39;36.47;97826.38;5058022;28;19926;-73
2023/06/01 11:38:34;;;;;;;;;;;;;;;27.39;37.49;97810.69;5042646;28;19932;-73
2023/06/01 11:41:01;;;;;;;;;;;;;;;27.44;37.37;97818.63;5042372;28;19933;-73
2023/06/01 11:43:28;;;;;;;;;;;;;;;27.31;36.29;97814.50;5040351;28;19925;-73
2023/06/01 11:46:00;;;;;;;;;;;;;;;27.35;35.32;97804.38;5045299;28;19936;-73
2023/06/01 11:48:27;;;;;;;;;;;;;;;27.27;35.81;97806.25;5039511;28;19925;-73
2023/06/01 11:50:54;;;;;;;;;;;;;;;27.21;34.78;97802.25;5050246;28;19932;-73
2023/06/01 11:53:22;;;;;;;;;;;;;;;27.23;35.05;97805.41;5039418;28;19925;-73
2023/06/01 11:55:49;;;;;;;;;;;;;;;27.14;36.74;97810.41;5038558;28;19925;-72
2023/06/01 11:58:22;;;;;;;;;;;;;;;27.08;36.04;97811.13;5040638;28;19925;-73
2023/06/01 12:00:48;;;;;;;;;;;;;;;27.09;35.59;97810.75;5043264;28;19936;-73
2023/06/01 12:03:16;;;;;;;;;;;;;;;27.01;37.26;97798.13;5042052;28;19952;-72
2023/06/01 12:05:45;;;;;;;;;;;;;;;26.99;37.09;97786.72;5035019;28;19937;-72
2023/06/01 12:08:13;;;;;;;;;;;;;;;26.96;35.92;97789.41;5033783;28;19932;-72
2023/06/01 12:10:42;;;;;;;;;;;;;;;27.02;36.62;97796.19;5035414;28;19929;-72
2023/06/01 12:13:08;;;;;;;;;;;;;;;27.16;37.13;97788.09;5042384;28;19932;-72
2023/06/01 12:15:35;;;;;;;;;;;;;;;27.46;37.55;97785.31;5041244;28;20043;-73
2023/06/01 12:18:01;;;;;;;;;;;;;;;27.33;36.49;97780.06;5035968;28;19925;-73
2023/06/01 12:20:28;;;;;;;;;;;;;;;27.36;38.59;97781.25;5038754;28;19925;-73
2023/06/01 12:22:55;;;;;;;;;;;;;;;27.40;36.76;97784.84;5042020;28;19933;-72
2023/06/01 12:25:22;;;;;;;;;;;;;;;27.43;35.80;97789.59;5041961;28;19933;-73
2023/06/01 12:28:01;;;;;;;;;;;;;;;27.41;35.70;97780.16;5040881;28;19948;-74
2023/06/01 12:30:28;;;;;;;;;;;;;;;27.32;37.61;97777.72;5044134;28;19926;-73
2023/06/01 12:32:54;;;;;;;;;;;;;;;27.46;38.04;97769.66;5037822;28;19936;-73
2023/06/01 12:35:23;;;;;;;;;;;;;;;27.42;38.47;97766.03;5047760;28;19926;-73
2023/06/01 12:38:03;;;;;;;;;;;;;;;27.36;36.17;97764.81;5041647;28;19925;-74
2023/06/01 12:40:29;;;;;;;;;;;;;;;27.05;36.65;97765.28;5035334;28;19925;-74
2023/06/01 12:42:55;;;;;;;;;;;;;;;27.10;37.23;97762.19;5036276;28;19932;-73
2023/06/01 12:45:23;;;;;;;;;;;;;;;27.27;37.97;97758.84;5039468;28;19926;-73
2023/06/01 12:47:50;;;;;;;;;;;;;;;27.46;36.89;97755.16;5056870;28;19926;-73
2023/06/01 12:50:16;;;;;;;;;;;;;;;27.42;38.37;97760.56;5041442;28;19925;-73
2023/06/01 12:52:43;;;;;;;;;;;;;;;27.46;38.34;97755.94;5039824;28;19925;-73